createdAt,value
2018-09-11T00:00:25.487Z,15.20
2018-09-11T00:02:54.704Z,15.00
2018-09-11T00:05:23.833Z,15.00
2018-09-11T00:07:52.962Z,15.00
2018-09-11T00:10:22.125Z,15.00
2018-09-11T00:12:51.293Z,15.00
2018-09-11T00:15:20.410Z,15.00
2018-09-11T00:17:50.505Z,14.90
2018-09-11T00:20:20.361Z,14.80
2018-09-11T00:22:49.529Z,14.70
2018-09-11T00:25:18.681Z,14.70
2018-09-11T00:27:47.826Z,14.80
2018-09-11T00:30:16.945Z,15.00
2018-09-11T00:32:46.105Z,15.00
2018-09-11T00:35:15.365Z,14.80
2018-09-11T00:37:44.521Z,14.70
2018-09-11T00:40:13.792Z,14.70
2018-09-11T00:42:43.629Z,14.70
2018-09-11T00:45:13.305Z,14.80
2018-09-11T00:47:42.452Z,14.80
2018-09-11T00:50:11.625Z,14.70
2018-09-11T00:52:40.785Z,14.50
2018-09-11T00:55:10.713Z,14.50
2018-09-11T00:57:39.821Z,14.50
2018-09-11T01:00:09.039Z,14.70
2018-09-11T01:02:38.283Z,14.80
2018-09-11T01:05:07.429Z,14.80
2018-09-11T01:07:36.562Z,14.70
2018-09-11T01:10:08.149Z,14.60
2018-09-11T01:12:37.307Z,14.50
2018-09-11T01:15:07.901Z,14.20
2018-09-11T01:17:37.366Z,14.30
2018-09-11T01:20:07.174Z,14.40
2018-09-11T01:22:36.268Z,14.50
2018-09-11T01:25:05.434Z,14.60
2018-09-11T01:27:34.517Z,14.70
2018-09-11T01:30:03.798Z,14.50
2018-09-11T01:32:32.901Z,14.40
2018-09-11T01:35:02.059Z,14.40
2018-09-11T01:37:31.186Z,14.60
2018-09-11T01:40:00.459Z,14.50
2018-09-11T01:42:29.557Z,14.50
2018-09-11T01:44:58.747Z,14.50
2018-09-11T01:47:27.849Z,14.20
2018-09-11T01:49:57.578Z,14.10
2018-09-11T01:52:26.682Z,14.00
2018-09-11T01:54:55.810Z,14.00
2018-09-11T01:57:24.925Z,14.00
2018-09-11T01:59:54.259Z,14.10
2018-09-11T02:02:23.819Z,14.30
2018-09-11T02:04:53.556Z,14.10
2018-09-11T02:07:22.686Z,14.10
2018-09-11T02:09:52.103Z,14.10
2018-09-11T02:12:22.041Z,14.00
2018-09-11T02:14:51.174Z,14.10
2018-09-11T02:17:20.346Z,14.10
2018-09-11T02:19:49.453Z,14.10
2018-09-11T02:22:18.598Z,14.10
2018-09-11T02:24:47.766Z,14.00
2018-09-11T02:27:16.881Z,14.20
2018-09-11T02:29:46.033Z,14.10
2018-09-11T02:32:15.166Z,14.00
2018-09-11T02:34:44.306Z,14.10
2018-09-11T02:37:13.425Z,13.90
2018-09-11T02:39:42.572Z,14.00
2018-09-11T02:42:12.868Z,14.20
2018-09-11T02:44:41.995Z,14.20
2018-09-11T02:47:11.554Z,14.20
2018-09-11T02:49:40.722Z,14.10
2018-09-11T02:52:09.902Z,14.10
2018-09-11T02:54:39.038Z,13.90
2018-09-11T02:57:08.153Z,13.70
2018-09-11T02:59:37.279Z,13.90
2018-09-11T03:02:06.532Z,14.10
2018-09-11T03:04:35.705Z,14.00
2018-09-11T03:07:04.814Z,14.00
2018-09-11T03:09:33.945Z,13.80
2018-09-11T03:12:03.197Z,13.80
2018-09-11T03:14:32.297Z,13.80
2018-09-11T03:17:01.394Z,13.80
2018-09-11T03:19:30.477Z,13.60
2018-09-11T03:21:59.622Z,13.20
2018-09-11T03:24:28.747Z,13.30
2018-09-11T03:26:57.842Z,13.70
2018-09-11T03:29:26.929Z,13.70
2018-09-11T03:31:56.030Z,13.70
2018-09-11T03:34:25.142Z,13.60
2018-09-11T03:36:54.268Z,13.30
2018-09-11T03:39:23.467Z,13.30
2018-09-11T03:41:52.605Z,13.30
2018-09-11T03:44:21.752Z,13.40
2018-09-11T03:46:50.897Z,13.30
2018-09-11T03:49:20.042Z,13.50
2018-09-11T03:51:49.250Z,13.10
2018-09-11T03:54:18.328Z,12.90
2018-09-11T03:56:47.427Z,12.80
2018-09-11T03:59:16.584Z,12.90
2018-09-11T04:01:45.694Z,12.50
2018-09-11T04:04:15.035Z,12.90
2018-09-11T04:06:44.171Z,13.20
2018-09-11T04:09:13.949Z,13.30
2018-09-11T04:11:43.358Z,13.10
2018-09-11T04:14:12.437Z,13.00
2018-09-11T04:16:41.545Z,12.90
2018-09-11T04:19:10.662Z,13.00
2018-09-11T04:21:39.756Z,13.10
2018-09-11T04:24:08.935Z,13.10
2018-09-11T04:26:38.106Z,13.20
2018-09-11T04:29:07.368Z,13.10
2018-09-11T04:31:36.553Z,13.20
2018-09-11T04:34:05.710Z,12.90
2018-09-11T04:36:34.844Z,13.00
2018-09-11T04:39:05.257Z,13.20
2018-09-11T04:41:34.365Z,13.30
2018-09-11T04:44:03.497Z,13.20
2018-09-11T04:46:32.644Z,13.20
2018-09-11T04:49:01.882Z,13.20
2018-09-11T04:51:30.997Z,13.10
2018-09-11T04:54:00.094Z,12.90
2018-09-11T04:56:29.193Z,12.90
2018-09-11T04:58:58.461Z,12.90
2018-09-11T05:01:27.623Z,12.80
2018-09-11T05:03:56.747Z,12.80
2018-09-11T05:06:25.844Z,12.80
2018-09-11T05:08:54.942Z,12.80
2018-09-11T05:11:24.050Z,12.80
2018-09-11T05:13:53.162Z,12.80
2018-09-11T05:16:22.261Z,13.00
2018-09-11T05:18:51.398Z,13.20
2018-09-11T05:21:20.473Z,13.20
2018-09-11T05:23:49.584Z,13.30
2018-09-11T05:26:18.686Z,12.90
2018-09-11T05:28:47.860Z,13.00
2018-09-11T05:31:17.049Z,13.10
2018-09-11T05:33:46.174Z,13.10
2018-09-11T05:36:15.261Z,13.10
2018-09-11T05:38:44.441Z,13.20
2018-09-11T05:41:13.553Z,13.30
2018-09-11T05:43:42.678Z,13.30
2018-09-11T05:46:11.757Z,13.30
2018-09-11T05:48:41.556Z,13.10
2018-09-11T05:51:10.733Z,13.20
2018-09-11T05:53:39.853Z,13.30
2018-09-11T05:56:09.241Z,13.40
2018-09-11T05:58:38.420Z,13.50
2018-09-11T06:01:07.553Z,13.60
2018-09-11T06:03:36.649Z,13.70
2018-09-11T06:06:05.769Z,13.70
2018-09-11T06:08:34.971Z,13.90
2018-09-11T06:11:04.090Z,13.90
2018-09-11T06:13:33.213Z,14.00
2018-09-11T06:16:02.319Z,14.10
2018-09-11T06:18:31.450Z,14.00
2018-09-11T06:21:00.569Z,14.20
2018-09-11T06:23:29.697Z,14.30
2018-09-11T06:25:58.837Z,14.40
2018-09-11T06:28:28.132Z,14.40
2018-09-11T06:30:57.298Z,14.50
2018-09-11T06:33:26.373Z,14.60
2018-09-11T06:35:55.509Z,14.80
2018-09-11T06:38:24.729Z,14.90
2018-09-11T06:40:53.856Z,14.90
2018-09-11T06:43:23.079Z,15.10
2018-09-11T06:45:53.149Z,15.10
2018-09-11T06:48:22.346Z,15.40
2018-09-11T06:50:51.486Z,15.60
2018-09-11T06:53:20.573Z,15.90
2018-09-11T06:55:49.669Z,16.30
2018-09-11T06:58:19.393Z,16.50
2018-09-11T07:00:48.513Z,16.80
2018-09-11T07:03:18.173Z,17.10
2018-09-11T07:05:47.309Z,17.30
2018-09-11T07:08:16.447Z,17.30
2018-09-11T07:10:45.605Z,17.50
2018-09-11T07:13:14.718Z,17.90
2018-09-11T07:15:43.834Z,18.30
2018-09-11T07:18:13.080Z,18.70
2018-09-11T07:20:42.189Z,19.00
2018-09-11T07:23:11.293Z,19.10
2018-09-11T07:25:40.482Z,19.30
2018-09-11T07:28:09.614Z,19.60
2018-09-11T07:30:39.481Z,19.70
2018-09-11T07:33:08.703Z,19.80
2018-09-11T07:35:37.807Z,20.10
2018-09-11T07:38:06.941Z,20.00
2018-09-11T07:40:36.054Z,20.20
2018-09-11T07:43:05.166Z,20.60
2018-09-11T07:45:34.337Z,20.90
2018-09-11T07:48:03.393Z,20.90
2018-09-11T07:50:32.570Z,21.30
2018-09-11T07:53:01.793Z,21.30
2018-09-11T07:55:30.856Z,21.50
2018-09-11T07:58:00.103Z,21.50
2018-09-11T08:00:29.381Z,21.80
2018-09-11T08:02:59.279Z,22.00
2018-09-11T08:05:29.108Z,22.10
2018-09-11T08:07:58.314Z,22.00
2018-09-11T08:10:27.395Z,22.20
2018-09-11T08:12:57.194Z,22.70
2018-09-11T08:15:26.303Z,22.60
2018-09-11T08:17:55.433Z,22.80
2018-09-11T08:20:24.514Z,23.10
2018-09-11T08:22:53.624Z,23.30
2018-09-11T08:25:22.729Z,23.30
2018-09-11T08:27:51.838Z,23.40
2018-09-11T08:30:20.925Z,23.70
2018-09-11T08:32:50.053Z,24.00
2018-09-11T08:35:19.151Z,24.10
2018-09-11T08:37:48.303Z,24.10
2018-09-11T08:40:17.402Z,23.90
2018-09-11T08:42:46.501Z,24.10
2018-09-11T08:45:15.592Z,24.30
2018-09-11T08:47:44.731Z,24.20
2018-09-11T08:50:13.842Z,24.60
2018-09-11T08:52:43.566Z,24.80
2018-09-11T08:55:12.615Z,24.70
2018-09-11T08:57:41.701Z,24.80
2018-09-11T09:00:11.410Z,25.00
2018-09-11T09:02:40.531Z,25.10
2018-09-11T09:05:09.621Z,25.00
2018-09-11T09:07:38.730Z,25.10
2018-09-11T09:10:07.937Z,25.40
2018-09-11T09:12:37.027Z,25.70
2018-09-11T09:15:06.187Z,25.90
2018-09-11T09:17:35.841Z,25.80
2018-09-11T09:20:04.989Z,25.90
2018-09-11T09:22:34.824Z,26.00
2018-09-11T09:25:04.342Z,26.00
2018-09-11T09:27:33.543Z,26.20
2018-09-11T09:30:02.701Z,26.50
2018-09-11T09:32:31.814Z,26.60
2018-09-11T09:35:00.917Z,26.80
2018-09-11T09:37:30.157Z,26.80
2018-09-11T09:39:59.279Z,26.80
2018-09-11T09:42:28.445Z,26.60
2018-09-11T09:44:57.882Z,26.60
2018-09-11T09:47:27.041Z,26.70
2018-09-11T09:49:56.154Z,26.80
2018-09-11T09:52:25.241Z,26.90
2018-09-11T09:54:54.352Z,27.20
2018-09-11T09:57:23.511Z,26.10
2018-09-11T09:59:52.609Z,26.50
2018-09-11T10:02:22.717Z,26.60
2018-09-11T10:04:52.604Z,27.00
2018-09-11T10:07:22.609Z,27.10
2018-09-11T10:09:52.254Z,27.30
2018-09-11T10:12:21.349Z,27.30
2018-09-11T10:14:50.465Z,27.30
2018-09-11T10:17:19.598Z,27.30
2018-09-11T10:19:48.697Z,27.50
2018-09-11T10:22:17.784Z,27.60
2018-09-11T10:24:47.005Z,27.70
2018-09-11T10:27:16.157Z,28.00
2018-09-11T10:29:45.302Z,28.10
2018-09-11T10:32:14.417Z,28.10
2018-09-11T10:34:43.534Z,28.10
2018-09-11T10:37:12.745Z,28.20
2018-09-11T10:39:41.857Z,28.50
2018-09-11T10:42:11.065Z,28.20
2018-09-11T10:44:40.169Z,28.60
2018-09-11T10:47:09.371Z,28.90
2018-09-11T10:49:38.473Z,28.70
2018-09-11T10:52:08.049Z,29.00
2018-09-11T10:54:37.168Z,29.00
2018-09-11T10:57:06.302Z,29.00
2018-09-11T10:59:35.404Z,29.00
2018-09-11T11:02:04.849Z,29.30
2018-09-11T11:04:34.050Z,29.20
2018-09-11T11:07:03.169Z,29.20
2018-09-11T11:09:32.286Z,29.20
2018-09-11T11:12:01.405Z,29.30
2018-09-11T11:14:30.534Z,29.30
2018-09-11T11:16:59.749Z,29.40
2018-09-11T11:19:28.858Z,29.30
2018-09-11T11:21:57.957Z,29.50
2018-09-11T11:24:27.090Z,29.40
2018-09-11T11:26:56.272Z,29.60
2018-09-11T11:29:25.398Z,29.70
2018-09-11T11:31:54.485Z,29.60
2018-09-11T11:34:23.585Z,29.70
2018-09-11T11:36:52.914Z,29.60
2018-09-11T11:39:21.832Z,29.90
2018-09-11T11:41:51.028Z,30.20
2018-09-11T11:44:20.048Z,30.20
2018-09-11T11:46:49.257Z,30.50
2018-09-11T11:49:19.356Z,30.50
2018-09-11T11:51:48.501Z,30.80
2018-09-11T11:54:17.594Z,30.90
2018-09-11T11:56:46.738Z,31.00
2018-09-11T11:59:15.870Z,31.00
2018-09-11T12:01:45.049Z,30.80
2018-09-11T12:04:14.137Z,31.10
2018-09-11T12:06:43.339Z,30.90
2018-09-11T12:09:12.829Z,31.40
2018-09-11T12:11:41.935Z,31.30
2018-09-11T12:14:11.007Z,31.80
2018-09-11T12:16:40.113Z,31.80
2018-09-11T12:19:09.213Z,31.70
2018-09-11T12:21:38.334Z,31.80
2018-09-11T12:24:07.430Z,31.90
2018-09-11T12:26:36.855Z,31.90
2018-09-11T12:29:05.898Z,31.80
2018-09-11T12:31:35.042Z,32.10
2018-09-11T12:34:04.142Z,32.60
2018-09-11T12:36:33.337Z,32.40
2018-09-11T12:39:03.425Z,32.20
2018-09-11T12:41:32.530Z,31.70
2018-09-11T12:44:01.606Z,32.30
2018-09-11T12:46:30.972Z,31.80
2018-09-11T12:48:59.837Z,32.40
2018-09-11T12:51:28.951Z,32.60
2018-09-11T12:53:58.054Z,32.10
2018-09-11T12:56:27.166Z,32.70
2018-09-11T12:58:56.245Z,32.50
2018-09-11T13:01:25.838Z,32.10
2018-09-11T13:03:54.946Z,32.50
2018-09-11T13:06:24.057Z,33.00
2018-09-11T13:08:53.129Z,33.00
2018-09-11T13:11:22.240Z,32.60
2018-09-11T13:13:51.483Z,32.00
2018-09-11T13:16:20.605Z,32.40
2018-09-11T13:18:49.709Z,32.20
2018-09-11T13:21:18.826Z,32.20
2018-09-11T13:23:47.921Z,32.10
2018-09-11T13:26:17.005Z,32.00
2018-09-11T13:28:46.717Z,31.80
2018-09-11T13:31:15.809Z,32.10
2018-09-11T13:33:44.959Z,32.20
2018-09-11T13:36:14.058Z,32.00
2018-09-11T13:38:43.190Z,32.00
2018-09-11T13:41:12.294Z,32.00
2018-09-11T13:43:41.410Z,31.80
2018-09-11T13:46:10.804Z,32.10
2018-09-11T13:48:39.895Z,31.90
2018-09-11T13:51:08.981Z,31.80
2018-09-11T13:53:38.087Z,31.80
2018-09-11T13:56:07.321Z,31.90
2018-09-11T13:58:36.433Z,31.90
2018-09-11T14:01:05.704Z,31.60
2018-09-11T14:03:34.798Z,31.40
2018-09-11T14:06:03.910Z,31.60
2018-09-11T14:08:33.045Z,31.40
2018-09-11T14:11:02.146Z,31.40
2018-09-11T14:13:31.281Z,31.40
2018-09-11T14:16:00.394Z,31.50
2018-09-11T14:18:29.558Z,31.60
2018-09-11T14:20:58.710Z,31.60
2018-09-11T14:23:27.828Z,31.40
2018-09-11T14:25:57.001Z,31.00
2018-09-11T14:28:26.746Z,30.90
2018-09-11T14:30:55.849Z,30.90
2018-09-11T14:33:24.944Z,30.90
2018-09-11T14:35:54.669Z,30.90
2018-09-11T14:38:23.809Z,30.90
2018-09-11T14:40:52.901Z,30.90
2018-09-11T14:43:22.054Z,31.00
2018-09-11T14:45:51.165Z,31.10
2018-09-11T14:48:20.296Z,31.10
2018-09-11T14:50:49.412Z,31.20
2018-09-11T14:53:18.589Z,31.10
2018-09-11T14:55:47.864Z,31.20
2018-09-11T14:58:16.967Z,31.20
2018-09-11T15:00:46.110Z,31.20
2018-09-11T15:03:15.213Z,31.10
2018-09-11T15:05:44.425Z,30.80
2018-09-11T15:08:13.542Z,30.70
2018-09-11T15:10:42.657Z,30.90
2018-09-11T15:13:11.754Z,31.00
2018-09-11T15:15:40.940Z,30.90
2018-09-11T15:18:10.106Z,30.90
2018-09-11T15:20:39.214Z,31.00
2018-09-11T15:23:08.318Z,30.90
2018-09-11T15:25:37.992Z,30.80
2018-09-11T15:28:07.101Z,30.40
2018-09-11T15:30:36.233Z,30.50
2018-09-11T15:33:05.388Z,30.60
2018-09-11T15:35:34.668Z,30.60
2018-09-11T15:38:03.793Z,30.60
2018-09-11T15:40:32.908Z,30.60
2018-09-11T15:43:02.169Z,30.40
2018-09-11T15:45:31.574Z,30.20
2018-09-11T15:48:00.706Z,30.00
2018-09-11T15:50:29.834Z,30.00
2018-09-11T15:52:58.923Z,29.90
2018-09-11T15:55:28.161Z,29.70
2018-09-11T15:57:57.252Z,29.70
2018-09-11T16:00:26.345Z,29.70
2018-09-11T16:02:55.425Z,29.50
2018-09-11T16:05:24.521Z,29.30
2018-09-11T16:07:53.627Z,29.20
2018-09-11T16:10:22.737Z,29.00
2018-09-11T16:12:52.817Z,28.90
2018-09-11T16:15:22.054Z,28.90
2018-09-11T16:17:51.149Z,28.70
2018-09-11T16:20:20.270Z,28.60
2018-09-11T16:22:50.048Z,28.60
2018-09-11T16:25:19.778Z,28.40
2018-09-11T16:27:48.886Z,28.20
2018-09-11T16:30:18.010Z,28.00
2018-09-11T16:32:47.102Z,27.80
2018-09-11T16:35:16.309Z,27.70
2018-09-11T16:37:46.061Z,27.60
2018-09-11T16:40:15.654Z,27.40
2018-09-11T16:42:45.713Z,27.30
2018-09-11T16:45:14.839Z,27.20
2018-09-11T16:47:44.682Z,27.20
2018-09-11T16:50:13.784Z,27.00
2018-09-11T16:52:42.867Z,27.00
2018-09-11T16:55:12.078Z,26.70
2018-09-11T16:57:41.298Z,26.40
2018-09-11T17:00:11.504Z,26.30
2018-09-11T17:02:41.669Z,26.30
2018-09-11T17:05:12.975Z,26.10
2018-09-11T17:07:45.959Z,26.10
2018-09-11T17:10:16.296Z,26.20
2018-09-11T17:12:45.782Z,26.10
2018-09-11T17:15:14.933Z,26.10
2018-09-11T17:17:44.274Z,25.90
2018-09-11T17:20:13.512Z,25.70
2018-09-11T17:22:42.534Z,25.90
2018-09-11T17:25:11.794Z,25.80
2018-09-11T17:27:40.999Z,25.60
2018-09-11T17:30:11.226Z,25.60
2018-09-11T17:32:40.922Z,25.40
2018-09-11T17:35:10.485Z,25.20
2018-09-11T17:37:40.677Z,25.10
2018-09-11T17:40:11.506Z,24.90
2018-09-11T17:42:42.408Z,24.90
2018-09-11T17:45:12.717Z,24.80
2018-09-11T17:47:42.783Z,24.90
2018-09-11T17:50:13.447Z,24.80
2018-09-11T17:52:42.541Z,24.60
2018-09-11T17:55:11.945Z,24.40
2018-09-11T17:57:42.232Z,24.30
2018-09-11T18:00:11.790Z,23.90
2018-09-11T18:02:41.322Z,23.80
2018-09-11T18:05:10.405Z,23.50
2018-09-11T18:07:39.554Z,23.50
2018-09-11T18:10:09.249Z,23.30
2018-09-11T18:12:38.375Z,23.30
2018-09-11T18:15:07.502Z,23.00
2018-09-11T18:17:37.446Z,22.90
2018-09-11T18:20:06.685Z,22.80
2018-09-11T18:22:35.794Z,22.60
2018-09-11T18:25:04.925Z,22.40
2018-09-11T18:27:34.055Z,22.50
2018-09-11T18:30:03.246Z,22.30
2018-09-11T18:32:32.417Z,22.30
2018-09-11T18:35:01.690Z,22.00
2018-09-11T18:37:30.842Z,21.80
2018-09-11T18:39:59.956Z,21.70
2018-09-11T18:42:29.476Z,21.60
2018-09-11T18:44:58.811Z,21.50
2018-09-11T18:47:28.030Z,21.50
2018-09-11T18:49:57.214Z,21.40
2018-09-11T18:52:26.599Z,20.90
2018-09-11T18:54:55.854Z,21.10
2018-09-11T18:57:27.799Z,21.20
2018-09-11T18:59:57.115Z,21.00
2018-09-11T19:02:27.928Z,21.00
2018-09-11T19:04:57.208Z,20.90
2018-09-11T19:07:26.298Z,20.80
2018-09-11T19:09:55.378Z,20.50
2018-09-11T19:12:24.535Z,20.50
2018-09-11T19:14:53.886Z,20.60
2018-09-11T19:17:23.553Z,20.60
2018-09-11T19:19:52.722Z,20.40
2018-09-11T19:22:22.297Z,19.80
2018-09-11T19:24:51.402Z,19.80
2018-09-11T19:27:20.489Z,19.90
2018-09-11T19:29:50.126Z,19.90
2018-09-11T19:32:19.265Z,19.80
2018-09-11T19:34:48.426Z,19.60
2018-09-11T19:37:17.977Z,19.70
2018-09-11T19:39:47.322Z,19.40
2018-09-11T19:42:16.550Z,18.90
2018-09-11T19:44:45.717Z,18.90
2018-09-11T19:47:14.802Z,19.20
2018-09-11T19:49:44.610Z,19.50
2018-09-11T19:52:14.026Z,19.40
2018-09-11T19:54:43.574Z,19.40
2018-09-11T19:57:12.702Z,19.30
2018-09-11T19:59:41.814Z,18.90
2018-09-11T20:02:11.355Z,19.10
2018-09-11T20:04:40.553Z,19.20
2018-09-11T20:07:09.672Z,19.20
2018-09-11T20:09:38.821Z,18.80
2018-09-11T20:12:10.241Z,19.00
2018-09-11T20:14:39.521Z,18.90
2018-09-11T20:17:08.629Z,18.20
2018-09-11T20:19:38.204Z,18.50
2018-09-11T20:22:09.849Z,18.80
2018-09-11T20:24:38.967Z,18.90
2018-09-11T20:27:08.206Z,18.80
2018-09-11T20:29:37.325Z,18.80
2018-09-11T20:32:07.271Z,18.30
2018-09-11T20:34:36.617Z,18.40
2018-09-11T20:37:06.492Z,18.20
2018-09-11T20:39:35.601Z,18.10
2018-09-11T20:42:05.938Z,18.40
2018-09-11T20:44:35.205Z,18.30
2018-09-11T20:47:04.289Z,18.20
2018-09-11T20:49:33.453Z,17.80
2018-09-11T20:52:03.304Z,18.10
2018-09-11T20:54:32.735Z,18.20
2018-09-11T20:57:02.273Z,17.90
2018-09-11T20:59:31.658Z,17.80
2018-09-11T21:02:01.623Z,17.60
2018-09-11T21:04:32.106Z,17.90
2018-09-11T21:07:01.689Z,17.90
2018-09-11T21:09:31.693Z,17.40
2018-09-11T21:12:00.780Z,17.50
2018-09-11T21:14:29.933Z,17.40
2018-09-11T21:16:59.039Z,17.70
2018-09-11T21:19:28.165Z,17.60
2018-09-11T21:21:57.284Z,17.70
2018-09-11T21:24:26.443Z,17.20
2018-09-11T21:26:55.511Z,17.50
2018-09-11T21:29:24.625Z,17.50
2018-09-11T21:31:53.709Z,17.50
2018-09-11T21:34:22.813Z,17.60
2018-09-11T21:36:52.190Z,17.70
2018-09-11T21:39:21.354Z,17.70
2018-09-11T21:41:50.435Z,17.60
2018-09-11T21:44:19.561Z,17.60
2018-09-11T21:46:48.645Z,17.60
2018-09-11T21:49:17.725Z,17.10
2018-09-11T21:51:46.868Z,17.00
2018-09-11T21:54:16.071Z,17.20
2018-09-11T21:56:46.148Z,17.40
2018-09-11T21:59:15.240Z,17.50
2018-09-11T22:01:44.898Z,17.30
2018-09-11T22:04:14.056Z,17.20
2018-09-11T22:06:43.177Z,17.30
2018-09-11T22:09:12.735Z,16.70
2018-09-11T22:11:41.958Z,16.40
2018-09-11T22:14:11.325Z,16.30
2018-09-11T22:16:40.544Z,16.70
2018-09-11T22:19:09.733Z,17.00
2018-09-11T22:21:38.750Z,16.90
2018-09-11T22:24:07.905Z,17.00
2018-09-11T22:26:37.004Z,16.70
2018-09-11T22:29:06.699Z,16.70
2018-09-11T22:31:35.816Z,16.70
2018-09-11T22:34:04.957Z,16.60
2018-09-11T22:36:34.835Z,16.70
2018-09-11T22:39:05.041Z,16.50
2018-09-11T22:41:34.219Z,16.50
2018-09-11T22:44:03.758Z,16.60
2018-09-11T22:46:32.900Z,16.70
2018-09-11T22:49:02.014Z,16.60
2018-09-11T22:51:31.141Z,16.60
2018-09-11T22:54:00.229Z,16.40
2018-09-11T22:56:29.450Z,16.10
2018-09-11T22:58:58.617Z,16.40
2018-09-11T23:01:27.718Z,16.30
2018-09-11T23:03:56.850Z,16.40
2018-09-11T23:06:25.982Z,16.20
2018-09-11T23:08:55.076Z,16.20
2018-09-11T23:11:25.105Z,16.40
2018-09-11T23:13:54.235Z,15.90
2018-09-11T23:16:23.930Z,16.00
2018-09-11T23:18:53.037Z,16.00
2018-09-11T23:21:22.170Z,15.80
2018-09-11T23:23:51.273Z,15.60
2018-09-11T23:26:20.433Z,15.60
2018-09-11T23:28:49.541Z,15.90
2018-09-11T23:31:19.409Z,15.90
2018-09-11T23:33:48.772Z,16.00
2018-09-11T23:36:17.901Z,15.80
2018-09-11T23:38:47.053Z,15.80
2018-09-11T23:41:16.217Z,15.50
2018-09-11T23:43:46.506Z,15.70
2018-09-11T23:46:15.609Z,15.70
2018-09-11T23:48:44.849Z,15.70
2018-09-11T23:51:13.958Z,15.80
2018-09-11T23:53:43.091Z,15.50
2018-09-11T23:56:12.169Z,15.50
2018-09-11T23:58:41.302Z,15.60
